sensor_id;sensor_type;location;lat;lon;timestamp;pressure;altitude;pressure_sealevel;temperature;humidity
53550;BME280;67273;52.914;-0.982;2023-06-10T00:01:27;101369.00;;;21.79;47.06
53550;BME280;67273;52.914;-0.982;2023-06-10T00:03:53;101372.81;;;21.78;47.03
53550;BME280;67273;52.914;-0.982;2023-06-10T00:06:19;101385.66;;;21.78;47.07
53550;BME280;67273;52.914;-0.982;2023-06-10T00:08:46;101376.63;;;21.77;47.02
53550;BME280;67273;52.914;-0.982;2023-06-10T00:11:12;101373.88;;;21.77;47.14
53550;BME280;67273;52.914;-0.982;2023-06-10T00:13:39;101379.34;;;21.77;47.10
53550;BME280;67273;52.914;-0.982;2023-06-10T00:16:05;101379.59;;;21.76;47.15
53550;BME280;67273;52.914;-0.982;2023-06-10T00:18:31;101374.13;;;21.76;47.05
53550;BME280;67273;52.914;-0.982;2023-06-10T00:20:57;101371.63;;;21.74;47.24
53550;BME280;67273;52.914;-0.982;2023-06-10T00:23:28;101362.59;;;21.74;47.04
53550;BME280;67273;52.914;-0.982;2023-06-10T00:25:56;101362.59;;;21.74;47.10
53550;BME280;67273;52.914;-0.982;2023-06-10T00:28:22;101360.97;;;21.73;47.05
53550;BME280;67273;52.914;-0.982;2023-06-10T00:30:49;101361.78;;;21.73;47.19
53550;BME280;67273;52.914;-0.982;2023-06-10T00:33:15;101354.63;;;21.72;47.13
53550;BME280;67273;52.914;-0.982;2023-06-10T00:35:41;101361.19;;;21.71;47.16
53550;BME280;67273;52.914;-0.982;2023-06-10T00:38:07;101363.06;;;21.71;46.99
53550;BME280;67273;52.914;-0.982;2023-06-10T00:40:33;101356.78;;;21.70;47.24
53550;BME280;67273;52.914;-0.982;2023-06-10T00:42:59;101354.06;;;21.70;47.34
53550;BME280;67273;52.914;-0.982;2023-06-10T00:45:25;101361.44;;;21.70;47.03
53550;BME280;67273;52.914;-0.982;2023-06-10T00:47:52;101355.13;;;21.69;47.21
53550;BME280;67273;52.914;-0.982;2023-06-10T00:50:18;101348.00;;;21.68;47.13
53550;BME280;67273;52.914;-0.982;2023-06-10T00:52:44;101347.19;;;21.68;47.09
53550;BME280;67273;52.914;-0.982;2023-06-10T00:55:11;101344.44;;;21.68;47.25
53550;BME280;67273;52.914;-0.982;2023-06-10T00:57:37;101342.75;;;21.67;47.16
53550;BME280;67273;52.914;-0.982;2023-06-10T01:00:04;101344.69;;;21.66;47.26
53550;BME280;67273;52.914;-0.982;2023-06-10T01:02:33;101336.47;;;21.66;47.21
53550;BME280;67273;52.914;-0.982;2023-06-10T01:05:00;101339.44;;;21.64;47.09
53550;BME280;67273;52.914;-0.982;2023-06-10T01:07:34;101336.72;;;21.64;47.18
53550;BME280;67273;52.914;-0.982;2023-06-10T01:10:08;101341.38;;;21.64;47.09
53550;BME280;67273;52.914;-0.982;2023-06-10T01:12:40;101337.78;;;21.63;47.11
53550;BME280;67273;52.914;-0.982;2023-06-10T01:15:08;101334.22;;;21.63;47.15
53550;BME280;67273;52.914;-0.982;2023-06-10T01:17:37;101338.00;;;21.62;47.27
53550;BME280;67273;52.914;-0.982;2023-06-10T01:20:18;101335.28;;;21.62;47.25
53550;BME280;67273;52.914;-0.982;2023-06-10T01:22:45;101336.38;;;21.61;47.18
53550;BME280;67273;52.914;-0.982;2023-06-10T01:25:11;101334.69;;;21.60;47.12
53550;BME280;67273;52.914;-0.982;2023-06-10T01:27:38;101333.88;;;21.59;47.26
53550;BME280;67273;52.914;-0.982;2023-06-10T01:30:10;101333.06;;;21.59;47.24
53550;BME280;67273;52.914;-0.982;2023-06-10T01:32:40;101341.25;;;21.59;47.02
53550;BME280;67273;52.914;-0.982;2023-06-10T01:35:08;101334.94;;;21.58;47.14
53550;BME280;67273;52.914;-0.982;2023-06-10T01:37:37;101332.19;;;21.58;47.36
53550;BME280;67273;52.914;-0.982;2023-06-10T01:40:06;101326.38;;;21.55;47.13
53550;BME280;67273;52.914;-0.982;2023-06-10T01:42:34;101338.19;;;21.55;47.09
53550;BME280;67273;52.914;-0.982;2023-06-10T01:45:00;101332.72;;;21.55;47.12
53550;BME280;67273;52.914;-0.982;2023-06-10T01:47:26;101334.59;;;21.55;47.13
53550;BME280;67273;52.914;-0.982;2023-06-10T01:49:52;101326.38;;;21.55;47.16
53550;BME280;67273;52.914;-0.982;2023-06-10T01:52:18;101328.31;;;21.54;47.04
53550;BME280;67273;52.914;-0.982;2023-06-10T01:54:46;101325.81;;;21.53;47.16
53550;BME280;67273;52.914;-0.982;2023-06-10T01:57:14;101328.53;;;21.53;47.21
53550;BME280;67273;52.914;-0.982;2023-06-10T01:59:41;101326.91;;;21.52;47.11
53550;BME280;67273;52.914;-0.982;2023-06-10T02:02:09;101322.25;;;21.52;47.21
53550;BME280;67273;52.914;-0.982;2023-06-10T02:04:35;101326.91;;;21.52;47.09
53550;BME280;67273;52.914;-0.982;2023-06-10T02:07:01;101319.75;;;21.51;47.09
53550;BME280;67273;52.914;-0.982;2023-06-10T02:09:29;101316.19;;;21.50;47.05
53550;BME280;67273;52.914;-0.982;2023-06-10T02:11:57;101320.00;;;21.49;47.18
53550;BME280;67273;52.914;-0.982;2023-06-10T02:14:24;101317.25;;;21.49;47.21
53550;BME280;67273;52.914;-0.982;2023-06-10T02:16:50;101319.16;;;21.49;47.12
53550;BME280;67273;52.914;-0.982;2023-06-10T02:19:16;101313.69;;;21.49;47.23
53550;BME280;67273;52.914;-0.982;2023-06-10T02:21:42;101303.00;;;21.47;47.05
53550;BME280;67273;52.914;-0.982;2023-06-10T02:24:09;101315.63;;;21.48;47.24
53550;BME280;67273;52.914;-0.982;2023-06-10T02:26:35;101307.66;;;21.47;47.11
53550;BME280;67273;52.914;-0.982;2023-06-10T02:29:01;101304.06;;;21.46;47.18
53550;BME280;67273;52.914;-0.982;2023-06-10T02:31:29;101305.97;;;21.45;47.18
53550;BME280;67273;52.914;-0.982;2023-06-10T02:33:55;101305.97;;;21.45;47.13
53550;BME280;67273;52.914;-0.982;2023-06-10T02:36:22;101298.84;;;21.44;47.14
53550;BME280;67273;52.914;-0.982;2023-06-10T02:38:49;101293.38;;;21.44;47.26
53550;BME280;67273;52.914;-0.982;2023-06-10T02:41:15;101297.16;;;21.43;47.24
53550;BME280;67273;52.914;-0.982;2023-06-10T02:43:41;101290.88;;;21.43;47.13
53550;BME280;67273;52.914;-0.982;2023-06-10T02:46:11;101290.88;;;21.43;47.32
53550;BME280;67273;52.914;-0.982;2023-06-10T02:48:45;101295.47;;;21.42;47.22
53550;BME280;67273;52.914;-0.982;2023-06-10T02:51:13;101290.00;;;21.42;47.21
53550;BME280;67273;52.914;-0.982;2023-06-10T02:53:43;101288.38;;;21.41;47.10
53550;BME280;67273;52.914;-0.982;2023-06-10T02:56:11;101299.31;;;21.41;47.39
53550;BME280;67273;52.914;-0.982;2023-06-10T02:58:38;101287.56;;;21.41;47.17
53550;BME280;67273;52.914;-0.982;2023-06-10T03:01:05;101292.16;;;21.40;47.23
53550;BME280;67273;52.914;-0.982;2023-06-10T03:03:41;101286.69;;;21.40;47.29
53550;BME280;67273;52.914;-0.982;2023-06-10T03:06:12;101286.69;;;21.40;47.22
53550;BME280;67273;52.914;-0.982;2023-06-10T03:08:39;101284.22;;;21.39;47.22
53550;BME280;67273;52.914;-0.982;2023-06-10T03:11:09;101279.59;;;21.39;47.35
53550;BME280;67273;52.914;-0.982;2023-06-10T03:13:37;101281.47;;;21.39;47.23
53550;BME280;67273;52.914;-0.982;2023-06-10T03:16:03;101276.28;;;21.37;47.10
53550;BME280;67273;52.914;-0.982;2023-06-10T03:18:30;101282.56;;;21.38;47.30
53550;BME280;67273;52.914;-0.982;2023-06-10T03:20:56;101276.28;;;21.37;47.45
53550;BME280;67273;52.914;-0.982;2023-06-10T03:23:26;101275.41;;;21.37;47.23
53550;BME280;67273;52.914;-0.982;2023-06-10T03:25:57;101281.75;;;21.37;47.36
53550;BME280;67273;52.914;-0.982;2023-06-10T03:28:27;101283.84;;;21.35;47.37
53550;BME280;67273;52.914;-0.982;2023-06-10T03:30:53;101278.41;;;21.35;47.41
53550;BME280;67273;52.914;-0.982;2023-06-10T03:33:22;101279.50;;;21.34;47.21
53550;BME280;67273;52.914;-0.982;2023-06-10T03:35:48;101288.50;;;21.35;47.36
53550;BME280;67273;52.914;-0.982;2023-06-10T03:38:14;101289.31;;;21.35;47.49
53550;BME280;67273;52.914;-0.982;2023-06-10T03:40:41;101276.75;;;21.34;47.32
53550;BME280;67273;52.914;-0.982;2023-06-10T03:43:07;101269.63;;;21.33;47.36
53550;BME280;67273;52.914;-0.982;2023-06-10T03:45:33;101278.66;;;21.34;47.34
53550;BME280;67273;52.914;-0.982;2023-06-10T03:48:01;101270.69;;;21.32;47.32
53550;BME280;67273;52.914;-0.982;2023-06-10T03:50:37;101269.03;;;21.31;47.29
53550;BME280;67273;52.914;-0.982;2023-06-10T03:53:03;101273.44;;;21.32;47.42
53550;BME280;67273;52.914;-0.982;2023-06-10T03:55:30;101274.50;;;21.31;47.27
53550;BME280;67273;52.914;-0.982;2023-06-10T03:58:00;101274.50;;;21.31;47.31
53550;BME280;67273;52.914;-0.982;2023-06-10T04:00:25;101278.31;;;21.30;47.27
53550;BME280;67273;52.914;-0.982;2023-06-10T04:02:51;101278.56;;;21.29;47.42
53550;BME280;67273;52.914;-0.982;2023-06-10T04:05:29;101274.72;;;21.30;47.45
53550;BME280;67273;52.914;-0.982;2023-06-10T04:07:56;101284.84;;;21.29;47.42
53550;BME280;67273;52.914;-0.982;2023-06-10T04:10:22;101272.25;;;21.28;47.24
53550;BME280;67273;52.914;-0.982;2023-06-10T04:12:48;101271.41;;;21.27;47.28
53550;BME280;67273;52.914;-0.982;2023-06-10T04:15:16;101274.97;;;21.28;47.58
53550;BME280;67273;52.914;-0.982;2023-06-10T04:17:42;101270.59;;;21.27;47.29
53550;BME280;67273;52.914;-0.982;2023-06-10T04:20:09;101264.31;;;21.26;47.46
53550;BME280;67273;52.914;-0.982;2023-06-10T04:22:37;101268.09;;;21.25;47.43
53550;BME280;67273;52.914;-0.982;2023-06-10T04:25:03;101271.66;;;21.26;47.34
53550;BME280;67273;52.914;-0.982;2023-06-10T04:27:29;101274.38;;;21.26;47.25
53550;BME280;67273;52.914;-0.982;2023-06-10T04:29:54;101268.91;;;21.26;47.30
53550;BME280;67273;52.914;-0.982;2023-06-10T04:32:22;101272.75;;;21.25;47.26
53550;BME280;67273;52.914;-0.982;2023-06-10T04:34:48;101269.16;;;21.24;47.30
53550;BME280;67273;52.914;-0.982;2023-06-10T04:37:15;101271.06;;;21.24;47.43
53550;BME280;67273;52.914;-0.982;2023-06-10T04:39:41;101263.94;;;21.23;47.38
53550;BME280;67273;52.914;-0.982;2023-06-10T04:42:08;101263.94;;;21.23;47.39
53550;BME280;67273;52.914;-0.982;2023-06-10T04:44:34;101263.94;;;21.23;47.51
53550;BME280;67273;52.914;-0.982;2023-06-10T04:47:00;101253.00;;;21.23;47.54
53550;BME280;67273;52.914;-0.982;2023-06-10T04:49:28;101253.00;;;21.23;47.31
53550;BME280;67273;52.914;-0.982;2023-06-10T04:51:55;101257.66;;;21.22;47.63
53550;BME280;67273;52.914;-0.982;2023-06-10T04:54:21;101253.00;;;21.23;47.48
53550;BME280;67273;52.914;-0.982;2023-06-10T04:56:47;101253.00;;;21.23;47.53
53550;BME280;67273;52.914;-0.982;2023-06-10T04:59:12;101251.34;;;21.22;47.60
53550;BME280;67273;52.914;-0.982;2023-06-10T05:01:39;101245.06;;;21.21;47.52
53550;BME280;67273;52.914;-0.982;2023-06-10T05:04:05;101245.88;;;21.22;47.63
53550;BME280;67273;52.914;-0.982;2023-06-10T05:06:32;101258.47;;;21.23;47.53
53550;BME280;67273;52.914;-0.982;2023-06-10T05:08:58;101243.16;;;21.22;47.43
53550;BME280;67273;52.914;-0.982;2023-06-10T05:11:24;101241.47;;;21.21;47.54
53550;BME280;67273;52.914;-0.982;2023-06-10T05:13:50;101244.22;;;21.21;47.42
53550;BME280;67273;52.914;-0.982;2023-06-10T05:16:17;101241.47;;;21.21;47.54
53550;BME280;67273;52.914;-0.982;2023-06-10T05:18:42;101241.47;;;21.21;47.56
53550;BME280;67273;52.914;-0.982;2023-06-10T05:21:08;101246.13;;;21.20;47.56
53550;BME280;67273;52.914;-0.982;2023-06-10T05:23:36;101244.47;;;21.19;47.52
53550;BME280;67273;52.914;-0.982;2023-06-10T05:26:02;101244.22;;;21.21;47.40
53550;BME280;67273;52.914;-0.982;2023-06-10T05:28:27;101244.22;;;21.21;47.61
53550;BME280;67273;52.914;-0.982;2023-06-10T05:30:53;101248.88;;;21.20;47.62
53550;BME280;67273;52.914;-0.982;2023-06-10T05:33:19;101245.31;;;21.20;47.51
53550;BME280;67273;52.914;-0.982;2023-06-10T05:35:45;101249.69;;;21.21;47.44
53550;BME280;67273;52.914;-0.982;2023-06-10T05:38:10;101255.16;;;21.21;47.61
53550;BME280;67273;52.914;-0.982;2023-06-10T05:40:38;101251.59;;;21.20;47.48
53550;BME280;67273;52.914;-0.982;2023-06-10T05:43:03;101249.69;;;21.21;47.50
53550;BME280;67273;52.914;-0.982;2023-06-10T05:45:29;101249.69;;;21.21;47.48
53550;BME280;67273;52.914;-0.982;2023-06-10T05:47:55;101249.69;;;21.21;47.42
53550;BME280;67273;52.914;-0.982;2023-06-10T05:50:21;101249.69;;;21.21;47.52
53550;BME280;67273;52.914;-0.982;2023-06-10T05:52:46;101248.88;;;21.20;47.45
53550;BME280;67273;52.914;-0.982;2023-06-10T05:55:12;101251.34;;;21.22;47.49
53550;BME280;67273;52.914;-0.982;2023-06-10T05:57:42;101254.09;;;21.22;47.52
53550;BME280;67273;52.914;-0.982;2023-06-10T06:00:11;101256.00;;;21.21;47.58
53550;BME280;67273;52.914;-0.982;2023-06-10T06:02:40;101259.56;;;21.22;47.68
53550;BME280;67273;52.914;-0.982;2023-06-10T06:05:08;101256.81;;;21.22;47.49
53550;BME280;67273;52.914;-0.982;2023-06-10T06:07:35;101258.13;;;21.19;47.89
53550;BME280;67273;52.914;-0.982;2023-06-10T06:10:01;101266.31;;;21.19;48.22
53550;BME280;67273;52.914;-0.982;2023-06-10T06:12:26;101260.63;;;21.21;48.14
53550;BME280;67273;52.914;-0.982;2023-06-10T06:14:53;101263.09;;;21.22;48.07
53550;BME280;67273;52.914;-0.982;2023-06-10T06:17:19;101266.66;;;21.23;48.21
53550;BME280;67273;52.914;-0.982;2023-06-10T06:19:45;101265.03;;;21.22;48.01
53550;BME280;67273;52.914;-0.982;2023-06-10T06:22:13;101262.06;;;21.23;48.06
53550;BME280;67273;52.914;-0.982;2023-06-10T06:24:39;101269.16;;;21.24;47.84
53550;BME280;67273;52.914;-0.982;2023-06-10T06:27:05;101265.59;;;21.24;48.00
53550;BME280;67273;52.914;-0.982;2023-06-10T06:29:31;101263.94;;;21.23;48.08
53550;BME280;67273;52.914;-0.982;2023-06-10T06:31:58;101265.59;;;21.24;47.80
53550;BME280;67273;52.914;-0.982;2023-06-10T06:34:24;101266.44;;;21.24;47.88
53550;BME280;67273;52.914;-0.982;2023-06-10T06:36:49;101264.78;;;21.23;47.94
53550;BME280;67273;52.914;-0.982;2023-06-10T06:39:16;101250.03;;;21.24;47.78
53550;BME280;67273;52.914;-0.982;2023-06-10T06:41:42;101260.72;;;21.26;47.85
53550;BME280;67273;52.914;-0.982;2023-06-10T06:44:08;101256.34;;;21.25;47.91
53550;BME280;67273;52.914;-0.982;2023-06-10T06:46:37;101260.72;;;21.26;48.28
53550;BME280;67273;52.914;-0.982;2023-06-10T06:49:05;101255.25;;;21.26;48.56
53550;BME280;67273;52.914;-0.982;2023-06-10T06:51:30;101252.53;;;21.26;48.61
53550;BME280;67273;52.914;-0.982;2023-06-10T06:53:56;101247.06;;;21.26;48.43
53550;BME280;67273;52.914;-0.982;2023-06-10T06:56:24;101252.53;;;21.26;48.60
53550;BME280;67273;52.914;-0.982;2023-06-10T06:58:49;101247.06;;;21.26;48.73
53550;BME280;67273;52.914;-0.982;2023-06-10T07:01:15;101244.91;;;21.28;48.55
53550;BME280;67273;52.914;-0.982;2023-06-10T07:03:41;101243.28;;;21.27;48.47
53550;BME280;67273;52.914;-0.982;2023-06-10T07:06:08;101243.28;;;21.27;48.50
53550;BME280;67273;52.914;-0.982;2023-06-10T07:08:35;101247.91;;;21.26;48.23
53550;BME280;67273;52.914;-0.982;2023-06-10T07:11:01;101246.00;;;21.27;48.31
53550;BME280;67273;52.914;-0.982;2023-06-10T07:13:26;101247.91;;;21.26;48.23
53550;BME280;67273;52.914;-0.982;2023-06-10T07:15:52;101251.47;;;21.27;48.11
53550;BME280;67273;52.914;-0.982;2023-06-10T07:18:18;101252.53;;;21.26;48.35
53550;BME280;67273;52.914;-0.982;2023-06-10T07:20:44;101252.53;;;21.26;48.25
53550;BME280;67273;52.914;-0.982;2023-06-10T07:23:11;101256.94;;;21.27;48.11
53550;BME280;67273;52.914;-0.982;2023-06-10T07:25:37;101253.38;;;21.26;48.08
53550;BME280;67273;52.914;-0.982;2023-06-10T07:28:03;101256.94;;;21.27;48.25
53550;BME280;67273;52.914;-0.982;2023-06-10T07:30:29;101253.38;;;21.26;48.04
53550;BME280;67273;52.914;-0.982;2023-06-10T07:32:54;101260.72;;;21.26;47.99
53550;BME280;67273;52.914;-0.982;2023-06-10T07:35:21;101260.72;;;21.26;48.00
53550;BME280;67273;52.914;-0.982;2023-06-10T07:37:47;101259.66;;;21.27;48.12
53550;BME280;67273;52.914;-0.982;2023-06-10T07:40:14;101264.31;;;21.26;47.92
53550;BME280;67273;52.914;-0.982;2023-06-10T07:42:40;101263.47;;;21.26;48.16
53550;BME280;67273;52.914;-0.982;2023-06-10T07:45:07;101266.19;;;21.26;48.02
53550;BME280;67273;52.914;-0.982;2023-06-10T07:47:34;101261.56;;;21.26;47.96
53550;BME280;67273;52.914;-0.982;2023-06-10T07:50:00;101258.00;;;21.26;47.90
53550;BME280;67273;52.914;-0.982;2023-06-10T07:52:26;101265.13;;;21.27;48.11
53550;BME280;67273;52.914;-0.982;2023-06-10T07:54:53;101258.84;;;21.26;47.94
53550;BME280;67273;52.914;-0.982;2023-06-10T07:57:21;101264.31;;;21.26;48.04
53550;BME280;67273;52.914;-0.982;2023-06-10T07:59:46;101255.25;;;21.26;48.13
53550;BME280;67273;52.914;-0.982;2023-06-10T08:02:12;101256.94;;;21.27;48.10
53550;BME280;67273;52.914;-0.982;2023-06-10T08:04:38;101252.53;;;21.26;48.00
53550;BME280;67273;52.914;-0.982;2023-06-10T08:07:04;101248.72;;;21.27;48.19
53550;BME280;67273;52.914;-0.982;2023-06-10T08:09:30;101251.47;;;21.27;48.12
53550;BME280;67273;52.914;-0.982;2023-06-10T08:11:56;101237.81;;;21.27;47.90
53550;BME280;67273;52.914;-0.982;2023-06-10T08:14:23;101242.19;;;21.28;48.04
53550;BME280;67273;52.914;-0.982;2023-06-10T08:16:49;101233.97;;;21.28;48.01
53550;BME280;67273;52.914;-0.982;2023-06-10T08:19:15;101229.59;;;21.27;48.00
53550;BME280;67273;52.914;-0.982;2023-06-10T08:21:40;101241.34;;;21.27;47.90
53550;BME280;67273;52.914;-0.982;2023-06-10T08:24:06;101244.91;;;21.28;48.04
53550;BME280;67273;52.914;-0.982;2023-06-10T08:26:32;101244.91;;;21.28;48.30
53550;BME280;67273;52.914;-0.982;2023-06-10T08:28:58;101237.81;;;21.27;48.23
53550;BME280;67273;52.914;-0.982;2023-06-10T08:31:25;101237.81;;;21.27;48.29
53550;BME280;67273;52.914;-0.982;2023-06-10T08:33:51;101233.41;;;21.26;48.24
53550;BME280;67273;52.914;-0.982;2023-06-10T08:36:17;101230.41;;;21.27;48.11
53550;BME280;67273;52.914;-0.982;2023-06-10T08:38:42;101222.22;;;21.27;47.98
53550;BME280;67273;52.914;-0.982;2023-06-10T08:41:09;101229.38;;;21.29;48.05
53550;BME280;67273;52.914;-0.982;2023-06-10T08:43:42;101237.56;;;21.29;48.23
53550;BME280;67273;52.914;-0.982;2023-06-10T08:46:09;101238.38;;;21.29;47.95
53550;BME280;67273;52.914;-0.982;2023-06-10T08:48:42;101231.25;;;21.28;48.24
53550;BME280;67273;52.914;-0.982;2023-06-10T08:51:10;101239.19;;;21.30;48.28
53550;BME280;67273;52.914;-0.982;2023-06-10T08:53:38;101233.97;;;21.28;48.05
53550;BME280;67273;52.914;-0.982;2023-06-10T08:56:05;101224.72;;;21.29;48.00
53550;BME280;67273;52.914;-0.982;2023-06-10T08:58:32;101240.06;;;21.30;48.08
53550;BME280;67273;52.914;-0.982;2023-06-10T09:00:59;101231.84;;;21.30;48.14
53550;BME280;67273;52.914;-0.982;2023-06-10T09:03:25;101239.44;;;21.28;48.11
53550;BME280;67273;52.914;-0.982;2023-06-10T09:05:52;101230.19;;;21.29;48.16
53550;BME280;67273;52.914;-0.982;2023-06-10T09:08:18;101231.00;;;21.30;48.00
53550;BME280;67273;52.914;-0.982;2023-06-10T09:10:45;101229.13;;;21.30;47.96
53550;BME280;67273;52.914;-0.982;2023-06-10T09:13:11;101221.75;;;21.31;47.94
53550;BME280;67273;52.914;-0.982;2023-06-10T09:15:36;101220.06;;;21.30;48.22
53550;BME280;67273;52.914;-0.982;2023-06-10T09:18:02;101217.91;;;21.32;47.90
53550;BME280;67273;52.914;-0.982;2023-06-10T09:20:30;101228.03;;;21.31;48.00
53550;BME280;67273;52.914;-0.982;2023-06-10T09:22:57;101215.47;;;21.30;47.92
53550;BME280;67273;52.914;-0.982;2023-06-10T09:25:34;101218.19;;;21.30;48.11
53550;BME280;67273;52.914;-0.982;2023-06-10T09:28:02;101228.03;;;21.31;47.97
53550;BME280;67273;52.914;-0.982;2023-06-10T09:30:30;101227.22;;;21.31;48.06
53550;BME280;67273;52.914;-0.982;2023-06-10T09:32:56;101228.03;;;21.31;48.05
53550;BME280;67273;52.914;-0.982;2023-06-10T09:35:22;101223.66;;;21.30;47.94
53550;BME280;67273;52.914;-0.982;2023-06-10T09:37:51;101210.00;;;21.30;48.04
53550;BME280;67273;52.914;-0.982;2023-06-10T09:40:18;101211.63;;;21.31;48.12
53550;BME280;67273;52.914;-0.982;2023-06-10T09:42:44;101208.91;;;21.31;48.05
53550;BME280;67273;52.914;-0.982;2023-06-10T09:45:10;101207.00;;;21.32;48.14
53550;BME280;67273;52.914;-0.982;2023-06-10T09:47:36;101214.38;;;21.31;47.97
53550;BME280;67273;52.914;-0.982;2023-06-10T09:50:02;101218.78;;;21.32;48.07
53550;BME280;67273;52.914;-0.982;2023-06-10T09:52:28;101211.63;;;21.31;47.98
53550;BME280;67273;52.914;-0.982;2023-06-10T09:55:00;101211.63;;;21.31;48.14
53550;BME280;67273;52.914;-0.982;2023-06-10T09:57:30;101200.69;;;21.31;48.03
53550;BME280;67273;52.914;-0.982;2023-06-10T09:59:57;101209.72;;;21.32;48.02
53550;BME280;67273;52.914;-0.982;2023-06-10T10:02:23;101216.03;;;21.32;47.97
53550;BME280;67273;52.914;-0.982;2023-06-10T10:04:49;101213.31;;;21.32;48.01
53550;BME280;67273;52.914;-0.982;2023-06-10T10:07:15;101217.09;;;21.31;48.18
53550;BME280;67273;52.914;-0.982;2023-06-10T10:09:42;101213.31;;;21.32;48.09
53550;BME280;67273;52.914;-0.982;2023-06-10T10:12:09;101207.84;;;21.32;48.23
53550;BME280;67273;52.914;-0.982;2023-06-10T10:14:38;101207.00;;;21.32;48.17
53550;BME280;67273;52.914;-0.982;2023-06-10T10:17:07;101208.66;;;21.33;48.02
53550;BME280;67273;52.914;-0.982;2023-06-10T10:19:38;101207.84;;;21.32;48.16
53550;BME280;67273;52.914;-0.982;2023-06-10T10:22:07;101205.09;;;21.32;48.08
53550;BME280;67273;52.914;-0.982;2023-06-10T10:24:39;101211.16;;;21.34;48.21
53550;BME280;67273;52.914;-0.982;2023-06-10T10:27:12;101198.78;;;21.32;48.22
53550;BME280;67273;52.914;-0.982;2023-06-10T10:29:42;101199.66;;;21.32;48.26
53550;BME280;67273;52.914;-0.982;2023-06-10T10:32:11;101199.66;;;21.32;48.22
53550;BME280;67273;52.914;-0.982;2023-06-10T10:34:43;101191.44;;;21.32;48.04
53550;BME280;67273;52.914;-0.982;2023-06-10T10:37:14;101196.91;;;21.32;48.16
53550;BME280;67273;52.914;-0.982;2023-06-10T10:39:40;101198.56;;;21.33;48.03
53550;BME280;67273;52.914;-0.982;2023-06-10T10:42:07;101198.56;;;21.33;48.22
53550;BME280;67273;52.914;-0.982;2023-06-10T10:44:36;101198.56;;;21.33;48.23
53550;BME280;67273;52.914;-0.982;2023-06-10T10:47:06;101189.53;;;21.33;48.07
53550;BME280;67273;52.914;-0.982;2023-06-10T10:49:35;101184.88;;;21.33;48.45
53550;BME280;67273;52.914;-0.982;2023-06-10T10:52:02;101184.88;;;21.33;48.16
53550;BME280;67273;52.914;-0.982;2023-06-10T10:54:31;101184.06;;;21.33;48.22
53550;BME280;67273;52.914;-0.982;2023-06-10T10:57:14;101176.69;;;21.33;48.08
53550;BME280;67273;52.914;-0.982;2023-06-10T10:59:54;101181.34;;;21.33;48.22
53550;BME280;67273;52.914;-0.982;2023-06-10T11:02:37;101181.09;;;21.34;48.26
53550;BME280;67273;52.914;-0.982;2023-06-10T11:05:07;101176.69;;;21.33;48.17
53550;BME280;67273;52.914;-0.982;2023-06-10T11:07:34;101173.94;;;21.33;48.07
53550;BME280;67273;52.914;-0.982;2023-06-10T11:10:01;101177.53;;;21.34;48.24
53550;BME280;67273;52.914;-0.982;2023-06-10T11:12:51;101180.28;;;21.34;48.19
53550;BME280;67273;52.914;-0.982;2023-06-10T11:15:22;101170.16;;;21.34;48.06
53550;BME280;67273;52.914;-0.982;2023-06-10T11:18:10;101175.63;;;21.34;48.16
53550;BME280;67273;52.914;-0.982;2023-06-10T11:20:52;101175.63;;;21.34;48.26
53550;BME280;67273;52.914;-0.982;2023-06-10T11:23:33;101169.06;;;21.35;48.37
53550;BME280;67273;52.914;-0.982;2023-06-10T11:26:19;101166.34;;;21.35;48.20
53550;BME280;67273;52.914;-0.982;2023-06-10T11:29:09;101164.44;;;21.36;48.25
53550;BME280;67273;52.914;-0.982;2023-06-10T11:31:43;101169.06;;;21.35;48.36
53550;BME280;67273;52.914;-0.982;2023-06-10T11:34:11;101160.03;;;21.35;48.33
53550;BME280;67273;52.914;-0.982;2023-06-10T11:36:39;101165.28;;;21.36;48.19
53550;BME280;67273;52.914;-0.982;2023-06-10T11:39:09;101162.53;;;21.36;48.29
53550;BME280;67273;52.914;-0.982;2023-06-10T11:41:36;101154.34;;;21.36;48.17
53550;BME280;67273;52.914;-0.982;2023-06-10T11:44:04;101160.63;;;21.37;48.18
53550;BME280;67273;52.914;-0.982;2023-06-10T11:46:33;101152.41;;;21.37;48.40
53550;BME280;67273;52.914;-0.982;2023-06-10T11:49:00;101149.69;;;21.37;48.62
53550;BME280;67273;52.914;-0.982;2023-06-10T11:51:30;101140.66;;;21.36;48.49
53550;BME280;67273;52.914;-0.982;2023-06-10T11:53:56;101142.34;;;21.37;48.46
53550;BME280;67273;52.914;-0.982;2023-06-10T11:56:22;101143.97;;;21.38;48.23
53550;BME280;67273;52.914;-0.982;2023-06-10T11:58:52;101137.94;;;21.36;48.50
53550;BME280;67273;52.914;-0.982;2023-06-10T12:01:20;101133.06;;;21.38;48.43
53550;BME280;67273;52.914;-0.982;2023-06-10T12:03:47;101137.69;;;21.38;48.47
53550;BME280;67273;52.914;-0.982;2023-06-10T12:06:13;101130.31;;;21.38;48.58
53550;BME280;67273;52.914;-0.982;2023-06-10T12:08:42;101130.31;;;21.38;48.34
53550;BME280;67273;52.914;-0.982;2023-06-10T12:11:08;101131.97;;;21.39;48.42
53550;BME280;67273;52.914;-0.982;2023-06-10T12:13:34;101123.22;;;21.37;48.35
53550;BME280;67273;52.914;-0.982;2023-06-10T12:16:07;101125.66;;;21.39;48.48
53550;BME280;67273;52.914;-0.982;2023-06-10T12:18:33;101122.94;;;21.39;48.30
53550;BME280;67273;52.914;-0.982;2023-06-10T12:20:59;101121.06;;;21.39;48.40
53550;BME280;67273;52.914;-0.982;2023-06-10T12:23:25;101115.59;;;21.39;48.49
53550;BME280;67273;52.914;-0.982;2023-06-10T12:25:55;101117.22;;;21.40;48.34
53550;BME280;67273;52.914;-0.982;2023-06-10T12:28:21;101125.44;;;21.40;48.38
53550;BME280;67273;52.914;-0.982;2023-06-10T12:30:47;101118.06;;;21.41;48.39
53550;BME280;67273;52.914;-0.982;2023-06-10T12:33:17;101115.34;;;21.41;48.39
53550;BME280;67273;52.914;-0.982;2023-06-10T12:35:47;101109.88;;;21.41;48.46
53550;BME280;67273;52.914;-0.982;2023-06-10T12:38:13;101113.44;;;21.41;48.72
53550;BME280;67273;52.914;-0.982;2023-06-10T12:40:39;101109.59;;;21.42;48.58
53550;BME280;67273;52.914;-0.982;2023-06-10T12:43:07;101105.22;;;21.41;48.80